createdAt,value
2023-03-29T00:00:19.415Z,51.37
2023-03-29T00:01:42.490Z,51.46
2023-03-29T00:03:04.321Z,51.36
2023-03-29T00:04:27.713Z,51.35
2023-03-29T00:05:49.583Z,51.64
2023-03-29T00:07:10.347Z,51.39
2023-03-29T00:08:35.398Z,51.38
2023-03-29T00:09:56.824Z,51.35
2023-03-29T00:11:19.117Z,51.38
2023-03-29T00:12:41.650Z,51.34
2023-03-29T00:14:02.790Z,51.55
2023-03-29T00:15:24.953Z,51.31
2023-03-29T00:16:46.916Z,51.27
2023-03-29T00:18:09.109Z,51.49
2023-03-29T00:19:35.710Z,51.40
2023-03-29T00:20:57.885Z,51.83
2023-03-29T00:22:19.825Z,51.59
2023-03-29T00:23:55.967Z,52.08
2023-03-29T00:25:17.249Z,52.09
2023-03-29T00:26:39.577Z,51.81
2023-03-29T00:28:03.320Z,52.02
2023-03-29T00:29:25.256Z,51.99
2023-03-29T00:30:47.181Z,52.19
2023-03-29T00:32:09.432Z,52.29
2023-03-29T00:33:30.546Z,51.85
2023-03-29T00:34:52.688Z,52.19
2023-03-29T00:36:14.771Z,52.01
2023-03-29T00:37:35.778Z,52.30
2023-03-29T00:38:59.247Z,52.47
2023-03-29T00:40:22.208Z,52.38
2023-03-29T00:41:45.332Z,52.39
2023-03-29T00:43:10.388Z,52.36
2023-03-29T00:44:57.364Z,52.49
2023-03-29T00:46:19.178Z,52.36
2023-03-29T00:47:46.308Z,52.61
2023-03-29T00:49:57.135Z,52.75
2023-03-29T00:51:20.858Z,52.42
2023-03-29T00:52:44.576Z,52.91
2023-03-29T00:54:14.739Z,52.59
2023-03-29T00:55:39.176Z,52.98
2023-03-29T00:57:04.127Z,52.77
2023-03-29T00:58:31.781Z,52.83
2023-03-29T00:59:54.971Z,52.92
2023-03-29T01:01:26.127Z,53.02
2023-03-29T01:02:54.604Z,52.76
2023-03-29T01:04:21.982Z,53.17
2023-03-29T01:05:48.954Z,53.24
2023-03-29T01:07:21.514Z,53.22
2023-03-29T01:08:48.020Z,53.19
2023-03-29T01:10:15.694Z,53.24
2023-03-29T01:11:43.294Z,53.21
2023-03-29T01:13:10.780Z,53.36
2023-03-29T01:14:36.112Z,53.50
2023-03-29T01:16:00.644Z,53.38
2023-03-29T01:17:25.633Z,53.67
2023-03-29T01:18:48.287Z,53.66
2023-03-29T01:20:15.091Z,53.80
2023-03-29T01:21:42.612Z,53.59
2023-03-29T01:23:21.416Z,53.76
2023-03-29T01:25:00.377Z,53.76
2023-03-29T01:26:32.628Z,53.67
2023-03-29T01:28:02.498Z,53.63
2023-03-29T01:29:28.023Z,53.83
2023-03-29T01:30:56.253Z,53.69
2023-03-29T01:32:23.677Z,53.99
2023-03-29T01:33:51.068Z,54.16
2023-03-29T01:35:16.523Z,54.10
2023-03-29T01:36:42.646Z,53.95
2023-03-29T01:38:09.914Z,53.97
2023-03-29T01:39:36.511Z,53.90
2023-03-29T01:40:58.383Z,53.90
2023-03-29T01:42:31.882Z,54.10
2023-03-29T01:44:00.334Z,53.93
2023-03-29T01:45:25.256Z,53.98
2023-03-29T01:46:53.838Z,53.84
2023-03-29T01:48:20.312Z,54.09
2023-03-29T01:49:48.082Z,54.16
2023-03-29T01:51:14.594Z,54.29
2023-03-29T01:52:40.638Z,53.91
2023-03-29T01:54:09.324Z,54.03
2023-03-29T01:55:35.057Z,54.13
2023-03-29T01:57:01.253Z,53.88
2023-03-29T01:58:29.866Z,54.21
2023-03-29T01:59:57.695Z,54.00
2023-03-29T02:01:23.422Z,54.06
2023-03-29T02:02:47.169Z,54.24
2023-03-29T02:04:14.280Z,53.92
2023-03-29T02:05:38.058Z,53.95
2023-03-29T02:07:02.063Z,54.12
2023-03-29T02:08:24.393Z,54.20
2023-03-29T02:09:47.118Z,54.23
2023-03-29T02:11:11.600Z,54.39
2023-03-29T02:12:37.320Z,54.21
2023-03-29T02:13:59.421Z,54.17
2023-03-29T02:15:23.587Z,54.40
2023-03-29T02:16:46.679Z,53.94
2023-03-29T02:18:08.178Z,54.31
2023-03-29T02:19:30.405Z,54.35
2023-03-29T02:20:54.287Z,54.57
2023-03-29T02:22:17.568Z,54.31
2023-03-29T02:23:45.549Z,54.34
2023-03-29T02:25:09.887Z,54.27
2023-03-29T02:26:33.916Z,54.43
2023-03-29T02:27:57.228Z,54.49
2023-03-29T02:29:18.436Z,54.59
2023-03-29T02:30:50.989Z,54.38
2023-03-29T02:32:18.636Z,54.86
2023-03-29T02:33:48.126Z,54.60
2023-03-29T02:35:17.578Z,54.39
2023-03-29T02:36:46.768Z,54.53
2023-03-29T02:38:12.578Z,54.54
2023-03-29T02:39:37.100Z,54.33
2023-03-29T02:41:03.898Z,54.52
2023-03-29T02:42:27.802Z,54.57
2023-03-29T02:43:50.028Z,54.58
2023-03-29T02:45:16.567Z,54.57
2023-03-29T02:46:39.894Z,54.80
2023-03-29T02:48:06.696Z,54.81
2023-03-29T02:49:28.069Z,54.85
2023-03-29T02:50:54.856Z,54.99
2023-03-29T02:52:19.439Z,54.72
2023-03-29T02:53:44.780Z,54.89
2023-03-29T02:55:15.042Z,54.60
2023-03-29T02:56:46.512Z,54.73
2023-03-29T02:58:08.793Z,54.62
2023-03-29T02:59:33.452Z,54.93
2023-03-29T03:00:57.779Z,54.87
2023-03-29T03:02:20.789Z,54.68
2023-03-29T03:03:43.048Z,54.96
2023-03-29T03:05:04.527Z,54.64
2023-03-29T03:06:29.382Z,54.80
2023-03-29T03:07:51.982Z,54.56
2023-03-29T03:09:17.035Z,54.79
2023-03-29T03:10:43.256Z,54.77
2023-03-29T03:12:04.657Z,54.63
2023-03-29T03:13:26.649Z,54.76
2023-03-29T03:14:49.945Z,54.66
2023-03-29T03:16:12.315Z,54.43
2023-03-29T03:17:40.035Z,54.65
2023-03-29T03:19:02.338Z,54.54
2023-03-29T03:20:26.826Z,54.60
2023-03-29T03:21:51.063Z,54.52
2023-03-29T03:23:15.143Z,54.61
2023-03-29T03:24:37.363Z,54.29
2023-03-29T03:26:00.144Z,54.59
2023-03-29T03:27:22.274Z,54.61
2023-03-29T03:28:44.150Z,54.58
2023-03-29T03:30:19.445Z,54.69
2023-03-29T03:32:15.738Z,54.65
2023-03-29T03:34:04.457Z,54.58
2023-03-29T03:35:41.747Z,54.84
2023-03-29T03:37:13.933Z,54.58
2023-03-29T03:38:39.432Z,54.60
2023-03-29T03:40:01.983Z,54.66
2023-03-29T03:41:26.662Z,54.47
2023-03-29T03:42:49.593Z,54.55
2023-03-29T03:44:13.415Z,54.42
2023-03-29T03:45:37.443Z,54.58
2023-03-29T03:47:09.938Z,54.37
2023-03-29T03:48:34.601Z,54.35
2023-03-29T03:50:19.994Z,54.14
2023-03-29T03:51:45.570Z,54.34
2023-03-29T03:53:09.437Z,54.55
2023-03-29T03:54:50.423Z,54.02
2023-03-29T03:56:38.780Z,54.21
2023-03-29T03:58:29.627Z,54.46
2023-03-29T03:59:52.446Z,54.41
2023-03-29T04:01:24.087Z,54.56
2023-03-29T04:02:57.749Z,54.32
2023-03-29T04:04:19.887Z,54.28
2023-03-29T04:06:03.902Z,54.24
2023-03-29T04:07:42.790Z,54.45
2023-03-29T04:09:22.765Z,54.17
2023-03-29T04:10:58.505Z,54.57
2023-03-29T04:12:26.250Z,54.36
2023-03-29T04:13:48.055Z,54.41
2023-03-29T04:15:39.319Z,54.49
2023-03-29T04:17:07.475Z,54.14
2023-03-29T04:18:44.232Z,54.33
2023-03-29T04:20:11.729Z,54.05
2023-03-29T04:21:38.525Z,54.18
2023-03-29T04:23:00.666Z,54.09
2023-03-29T04:24:24.830Z,54.18
2023-03-29T04:26:07.840Z,54.13
2023-03-29T04:27:42.746Z,54.00
2023-03-29T04:29:19.037Z,53.89
2023-03-29T04:30:48.399Z,53.69
2023-03-29T04:32:15.223Z,53.58
2023-03-29T04:33:51.697Z,53.93
2023-03-29T04:35:14.894Z,53.62
2023-03-29T04:36:37.382Z,53.74
2023-03-29T04:38:04.553Z,53.97
2023-03-29T04:39:34.075Z,53.88
2023-03-29T04:40:59.292Z,54.22
2023-03-29T04:42:42.487Z,54.12
2023-03-29T04:44:04.656Z,53.82
2023-03-29T04:45:27.564Z,54.05
2023-03-29T04:47:05.134Z,53.91
2023-03-29T04:50:36.346Z,54.01
2023-03-29T04:51:57.740Z,54.18
2023-03-29T04:53:23.391Z,54.20
2023-03-29T04:54:47.024Z,54.12
2023-03-29T04:56:20.052Z,53.78
2023-03-29T04:58:06.491Z,53.88
2023-03-29T04:59:32.714Z,53.53
2023-03-29T05:00:58.290Z,54.03
2023-03-29T05:02:24.733Z,53.96
2023-03-29T05:03:47.394Z,53.89
2023-03-29T05:05:28.164Z,53.68
2023-03-29T05:08:44.748Z,53.83
2023-03-29T05:10:50.316Z,53.81
2023-03-29T05:12:13.173Z,53.89
2023-03-29T05:13:55.273Z,53.93
2023-03-29T05:15:22.228Z,53.77
2023-03-29T05:16:45.154Z,53.67
2023-03-29T05:18:07.255Z,53.97
2023-03-29T05:19:29.850Z,53.97
2023-03-29T05:20:53.150Z,53.98
2023-03-29T05:22:21.824Z,54.21
2023-03-29T05:23:45.027Z,53.97
2023-03-29T05:25:06.921Z,53.91
2023-03-29T05:26:29.781Z,54.08
2023-03-29T05:27:53.236Z,54.02
2023-03-29T05:29:14.655Z,53.90
2023-03-29T05:30:40.701Z,54.09
2023-03-29T05:32:10.069Z,54.21
2023-03-29T05:33:37.388Z,53.94
2023-03-29T05:35:00.578Z,54.32
2023-03-29T05:36:22.314Z,54.17
2023-03-29T05:37:48.504Z,54.16
2023-03-29T05:39:11.178Z,54.14
2023-03-29T05:40:36.095Z,54.27
2023-03-29T05:42:32.977Z,54.19
2023-03-29T05:44:00.910Z,53.90
2023-03-29T05:45:24.862Z,54.17
2023-03-29T05:46:46.457Z,54.24
2023-03-29T05:48:11.879Z,54.13
2023-03-29T05:49:38.175Z,53.92
2023-03-29T05:51:17.534Z,53.86
2023-03-29T05:52:41.154Z,53.84
2023-03-29T05:54:04.776Z,53.59
2023-03-29T05:55:27.165Z,53.68
2023-03-29T05:56:49.241Z,53.71
2023-03-29T05:58:12.451Z,53.58
2023-03-29T05:59:35.596Z,53.27
2023-03-29T06:01:00.787Z,53.24
2023-03-29T06:02:46.607Z,53.22
2023-03-29T06:04:09.333Z,53.37
2023-03-29T06:05:41.152Z,53.24
2023-03-29T06:07:05.116Z,53.40
2023-03-29T06:08:28.715Z,53.18
2023-03-29T06:10:00.620Z,52.95
2023-03-29T06:11:26.422Z,52.82
2023-03-29T06:13:12.069Z,52.58
2023-03-29T06:14:34.637Z,52.45
2023-03-29T06:16:19.063Z,52.28
2023-03-29T06:17:40.784Z,51.99
2023-03-29T06:19:02.296Z,51.85
2023-03-29T06:20:25.619Z,51.66
2023-03-29T06:21:54.388Z,51.41
2023-03-29T06:23:22.425Z,51.05
2023-03-29T06:24:44.920Z,51.15
2023-03-29T06:26:20.164Z,50.77
2023-03-29T06:27:43.158Z,50.44
2023-03-29T06:29:05.878Z,50.21
2023-03-29T06:30:29.008Z,49.82
2023-03-29T06:31:51.937Z,49.76
2023-03-29T06:33:34.239Z,49.17
2023-03-29T06:35:16.636Z,49.20
2023-03-29T06:36:47.804Z,48.45
2023-03-29T06:38:11.252Z,48.29
2023-03-29T06:39:57.105Z,47.91
2023-03-29T06:41:34.732Z,47.14
2023-03-29T06:43:02.490Z,46.74
2023-03-29T06:44:28.500Z,46.30
2023-03-29T06:45:59.182Z,45.80
2023-03-29T06:47:31.679Z,45.58
2023-03-29T06:48:53.992Z,44.97
2023-03-29T06:50:21.293Z,45.08
2023-03-29T06:51:58.322Z,44.76
2023-03-29T06:53:20.431Z,44.23
2023-03-29T06:54:50.598Z,44.03
2023-03-29T06:56:14.723Z,43.74
2023-03-29T06:57:40.122Z,42.93
2023-03-29T06:59:02.718Z,42.69
2023-03-29T07:00:42.405Z,42.33
2023-03-29T07:02:13.582Z,41.92
2023-03-29T07:03:57.359Z,41.55
2023-03-29T07:05:28.006Z,41.19
2023-03-29T07:06:58.874Z,40.95
2023-03-29T07:08:21.435Z,40.56
2023-03-29T07:09:55.653Z,40.40
2023-03-29T07:11:36.787Z,40.16
2023-03-29T07:13:27.752Z,39.91
2023-03-29T07:14:56.399Z,39.40
2023-03-29T07:16:22.539Z,39.40
2023-03-29T07:18:05.946Z,39.06
2023-03-29T07:19:30.331Z,38.63
2023-03-29T07:21:04.236Z,38.48
2023-03-29T07:22:31.332Z,38.57
2023-03-29T07:23:57.221Z,37.97
2023-03-29T07:25:20.385Z,37.43
2023-03-29T07:26:52.137Z,37.57
2023-03-29T07:28:38.975Z,37.46
2023-03-29T07:30:12.156Z,37.79
2023-03-29T07:31:46.890Z,37.29
2023-03-29T07:33:48.751Z,36.64
2023-03-29T07:35:48.281Z,36.43
2023-03-29T07:37:36.567Z,35.95
2023-03-29T07:39:04.011Z,35.56
2023-03-29T07:40:36.975Z,35.01
2023-03-29T07:45:36.705Z,34.03
2023-03-29T07:47:26.257Z,34.17
2023-03-29T07:48:48.755Z,33.27
2023-03-29T07:50:13.717Z,32.76
2023-03-29T07:51:37.224Z,32.50
2023-03-29T07:53:03.973Z,32.26
2023-03-29T07:54:28.857Z,32.01
2023-03-29T07:56:10.378Z,31.85
2023-03-29T07:57:55.729Z,31.45
2023-03-29T07:59:17.788Z,30.80
2023-03-29T08:00:45.497Z,30.56
2023-03-29T08:02:29.864Z,30.10
2023-03-29T08:03:56.935Z,29.95
2023-03-29T08:05:40.803Z,30.03
2023-03-29T08:07:09.478Z,29.16
2023-03-29T08:09:01.553Z,29.12
2023-03-29T08:10:23.047Z,28.70
2023-03-29T08:11:59.947Z,28.25
2023-03-29T08:13:28.648Z,28.35
2023-03-29T08:15:16.168Z,28.05
2023-03-29T08:18:36.415Z,27.56
2023-03-29T08:20:02.499Z,26.91
2023-03-29T08:21:24.658Z,26.51
2023-03-29T08:22:50.440Z,26.13
2023-03-29T08:24:26.585Z,25.72
2023-03-29T08:25:53.656Z,24.99
2023-03-29T08:27:15.864Z,24.72
2023-03-29T08:28:41.012Z,24.21
2023-03-29T08:30:05.315Z,23.77
2023-03-29T08:31:29.829Z,23.51
2023-03-29T08:32:55.409Z,22.38
2023-03-29T08:34:18.183Z,21.76
2023-03-29T08:35:42.315Z,22.35
2023-03-29T08:37:11.181Z,21.77
2023-03-29T08:38:37.749Z,21.49
2023-03-29T08:40:00.376Z,20.31
2023-03-29T08:41:42.176Z,20.10
2023-03-29T08:43:22.416Z,19.95
2023-03-29T08:45:14.744Z,20.23
2023-03-29T08:46:45.881Z,19.66
2023-03-29T08:48:35.604Z,19.37
2023-03-29T08:50:02.021Z,18.73
2023-03-29T08:51:38.238Z,17.62
2023-03-29T08:53:05.975Z,16.91
2023-03-29T08:54:51.836Z,15.94
2023-03-29T08:56:42.068Z,13.67
2023-03-29T08:58:19.652Z,13.05
2023-03-29T08:59:43.732Z,11.98
2023-03-29T09:01:11.472Z,11.17
2023-03-29T09:02:47.182Z,10.56
2023-03-29T09:04:15.271Z,9.31
2023-03-29T09:05:49.550Z,8.73
2023-03-29T09:07:26.638Z,8.53
2023-03-29T09:08:53.817Z,7.97
2023-03-29T09:10:54.984Z,7.79
2023-03-29T09:12:27.652Z,7.81
2023-03-29T09:13:59.810Z,7.48
2023-03-29T09:15:25.471Z,7.50
2023-03-29T09:16:57.174Z,9.36
2023-03-29T09:18:25.631Z,8.83
2023-03-29T09:19:56.154Z,8.58
2023-03-29T09:21:23.955Z,8.07
2023-03-29T09:22:53.479Z,7.58
2023-03-29T09:24:39.131Z,7.44
2023-03-29T09:26:18.837Z,6.99
2023-03-29T09:28:22.618Z,7.13
2023-03-29T09:29:59.713Z,7.56
2023-03-29T09:31:44.600Z,8.06
2023-03-29T09:33:14.236Z,7.76
2023-03-29T09:35:03.447Z,7.38
2023-03-29T09:36:42.102Z,7.12
2023-03-29T09:38:05.660Z,7.06
2023-03-29T09:39:31.407Z,6.84
2023-03-29T09:41:21.387Z,6.29
2023-03-29T09:42:46.158Z,6.96
2023-03-29T09:44:23.980Z,7.21
2023-03-29T09:45:57.997Z,8.43
2023-03-29T09:47:26.397Z,7.95
2023-03-29T09:48:51.834Z,8.22
2023-03-29T09:50:30.967Z,8.38
2023-03-29T09:52:00.996Z,8.60
2023-03-29T09:53:23.544Z,9.15
2023-03-29T09:55:07.861Z,9.13
2023-03-29T09:56:45.585Z,9.11
2023-03-29T09:58:16.273Z,9.29
2023-03-29T09:59:42.984Z,9.66
2023-03-29T10:01:10.404Z,10.11
2023-03-29T10:02:33.506Z,9.94
2023-03-29T10:03:55.502Z,9.91
2023-03-29T10:05:20.053Z,10.23
2023-03-29T10:06:49.290Z,10.60
2023-03-29T10:08:20.060Z,10.95
2023-03-29T10:09:44.801Z,11.26
2023-03-29T10:11:16.368Z,11.27
2023-03-29T10:12:38.869Z,11.68
2023-03-29T10:14:04.424Z,11.92
2023-03-29T10:15:30.126Z,12.46
2023-03-29T10:16:57.501Z,12.42
2023-03-29T10:18:19.380Z,12.85
2023-03-29T10:19:50.467Z,13.10
2023-03-29T10:21:16.826Z,13.27
2023-03-29T10:22:40.889Z,13.62
2023-03-29T10:24:02.787Z,13.87
2023-03-29T10:25:26.551Z,14.52
2023-03-29T10:26:49.464Z,14.60
2023-03-29T10:28:16.282Z,14.45
2023-03-29T10:29:41.211Z,15.22
2023-03-29T10:31:04.207Z,15.37
2023-03-29T10:32:31.776Z,15.55
2023-03-29T10:33:55.621Z,16.14
2023-03-29T10:35:24.173Z,16.46
2023-03-29T10:36:54.776Z,16.99
2023-03-29T10:38:19.759Z,17.15
2023-03-29T10:39:41.944Z,17.70
2023-03-29T10:41:10.168Z,17.78
2023-03-29T10:42:32.854Z,17.72
2023-03-29T10:43:57.138Z,18.08
2023-03-29T10:45:27.706Z,17.80
2023-03-29T10:46:49.965Z,18.09
2023-03-29T10:48:14.127Z,18.19
2023-03-29T10:50:06.121Z,19.05
2023-03-29T10:51:31.500Z,19.13
2023-03-29T10:52:55.301Z,19.39
2023-03-29T10:54:21.060Z,19.99
2023-03-29T10:55:56.022Z,19.88
2023-03-29T10:57:32.696Z,19.79
2023-03-29T10:59:22.064Z,19.95
2023-03-29T11:00:48.492Z,20.00
2023-03-29T11:02:43.413Z,20.16
2023-03-29T11:04:17.575Z,20.46
2023-03-29T11:05:46.569Z,20.33
2023-03-29T11:07:27.292Z,20.77
2023-03-29T11:08:57.573Z,20.51
2023-03-29T11:10:32.338Z,21.05
2023-03-29T11:12:31.565Z,20.58
2023-03-29T11:14:00.060Z,20.68
2023-03-29T11:15:35.440Z,20.98
2023-03-29T11:17:09.579Z,21.00
2023-03-29T11:18:54.888Z,20.92
2023-03-29T11:20:29.658Z,21.22
2023-03-29T11:22:00.440Z,21.70
2023-03-29T11:23:39.970Z,21.52
2023-03-29T11:25:19.033Z,21.79
2023-03-29T11:26:53.870Z,21.33
2023-03-29T11:28:25.610Z,21.29
2023-03-29T11:29:59.417Z,20.88
2023-03-29T11:31:34.478Z,20.86
2023-03-29T11:33:07.090Z,21.07
2023-03-29T11:34:38.015Z,21.19
2023-03-29T11:36:06.874Z,20.80
2023-03-29T11:37:36.109Z,21.11
2023-03-29T11:39:05.556Z,21.09
2023-03-29T11:40:44.814Z,21.32
2023-03-29T11:42:13.166Z,21.29
2023-03-29T11:43:39.581Z,21.52
2023-03-29T11:45:08.291Z,21.43
2023-03-29T11:46:36.547Z,21.40
2023-03-29T11:48:12.320Z,21.51
2023-03-29T11:49:42.568Z,22.05
2023-03-29T11:51:12.130Z,22.41
2023-03-29T11:52:39.175Z,22.66
2023-03-29T11:54:07.124Z,23.12
2023-03-29T11:55:33.743Z,22.94
2023-03-29T11:57:02.839Z,23.67
2023-03-29T11:58:31.298Z,23.96
2023-03-29T12:00:00.280Z,24.35
2023-03-29T12:01:34.774Z,24.58
2023-03-29T12:03:01.404Z,25.20
2023-03-29T12:04:28.771Z,25.42
2023-03-29T12:05:56.853Z,25.61
2023-03-29T12:07:25.336Z,26.22
2023-03-29T12:08:54.103Z,26.26
2023-03-29T12:10:21.231Z,26.77
2023-03-29T12:11:54.204Z,26.75
2023-03-29T12:13:20.704Z,26.95
2023-03-29T12:14:57.897Z,27.16
2023-03-29T12:16:27.740Z,27.64
2023-03-29T12:17:56.274Z,27.82
2023-03-29T12:19:22.981Z,28.09
2023-03-29T12:20:49.884Z,28.25
2023-03-29T12:22:12.957Z,28.63
2023-03-29T12:23:39.733Z,28.50
2023-03-29T12:25:10.364Z,28.84
2023-03-29T12:26:53.898Z,28.90
2023-03-29T12:28:58.201Z,29.12
2023-03-29T12:33:48.835Z,29.82
2023-03-29T12:35:56.239Z,29.61
2023-03-29T12:40:21.743Z,29.98
2023-03-29T12:45:09.409Z,30.36
2023-03-29T12:46:37.238Z,30.43
2023-03-29T12:48:30.450Z,30.19
2023-03-29T12:50:03.968Z,30.45
2023-03-29T12:51:43.128Z,30.63
2023-03-29T12:56:39.971Z,31.04
2023-03-29T12:58:30.455Z,30.85
2023-03-29T13:00:36.906Z,31.08
2023-03-29T13:02:48.981Z,30.89
2023-03-29T13:11:06.971Z,30.59
2023-03-29T13:13:03.504Z,31.40
2023-03-29T13:15:24.259Z,32.00
2023-03-29T13:18:16.097Z,31.85
2023-03-29T13:20:40.822Z,31.56
2023-03-29T13:22:17.527Z,31.61
2023-03-29T13:23:50.503Z,31.61
2023-03-29T13:27:20.930Z,31.75
2023-03-29T13:29:23.927Z,31.74
2023-03-29T13:31:00.365Z,31.55
2023-03-29T13:32:55.407Z,31.87
2023-03-29T13:35:11.240Z,31.65
2023-03-29T13:39:43.007Z,31.96
2023-03-29T13:41:28.483Z,31.75
2023-03-29T13:56:59.902Z,31.49
2023-03-29T13:59:03.222Z,31.25
2023-03-29T14:00:59.208Z,31.34
2023-03-29T14:03:13.848Z,31.45
2023-03-29T14:05:37.055Z,31.69
2023-03-29T14:12:24.013Z,31.79
2023-03-29T14:21:20.193Z,31.89
2023-03-29T14:23:35.241Z,31.69
2023-03-29T14:25:16.692Z,31.84
2023-03-29T14:27:09.144Z,32.03
2023-03-29T14:31:44.812Z,32.00
2023-03-29T14:33:20.031Z,31.96
2023-03-29T14:34:48.831Z,32.22
2023-03-29T14:36:22.579Z,31.94
2023-03-29T14:38:28.172Z,32.15
2023-03-29T14:47:20.469Z,32.83
2023-03-29T14:55:49.779Z,32.51
2023-03-29T14:57:58.669Z,32.40
2023-03-29T15:00:15.816Z,32.64
2023-03-29T15:02:44.079Z,33.04
2023-03-29T16:13:55.467Z,37.04
2023-03-29T16:22:48.538Z,37.26
2023-03-29T16:38:24.673Z,38.04
2023-03-29T16:39:51.907Z,38.11
2023-03-29T16:41:20.178Z,38.39
2023-03-29T16:43:29.209Z,38.41
2023-03-29T16:45:06.155Z,38.29
2023-03-29T16:48:43.567Z,38.72
2023-03-29T16:50:08.551Z,38.83
2023-03-29T16:51:39.994Z,38.89
2023-03-29T16:53:37.531Z,39.07
2023-03-29T16:55:02.609Z,39.11
2023-03-29T16:56:28.459Z,39.08
2023-03-29T16:57:51.355Z,39.33
2023-03-29T16:59:19.731Z,39.35
2023-03-29T17:00:42.046Z,39.59
2023-03-29T17:02:06.901Z,39.58
2023-03-29T17:03:30.527Z,39.70
2023-03-29T17:04:54.092Z,39.71
2023-03-29T17:06:19.818Z,39.94
2023-03-29T17:07:43.582Z,40.00
2023-03-29T17:09:21.650Z,40.06
2023-03-29T17:13:43.052Z,39.95
2023-03-29T17:14:34.906Z,39.96
2023-03-29T17:16:37.150Z,40.07
2023-03-29T17:18:15.749Z,40.14
2023-03-29T17:19:51.778Z,40.26
2023-03-29T17:21:14.126Z,40.28
2023-03-29T17:22:38.726Z,40.51
2023-03-29T17:24:04.765Z,40.61
2023-03-29T17:25:40.825Z,40.83
2023-03-29T17:27:03.396Z,40.82
2023-03-29T17:28:31.988Z,41.18
2023-03-29T17:29:54.991Z,41.27
2023-03-29T17:31:19.693Z,41.27
2023-03-29T17:32:45.966Z,41.45
2023-03-29T17:34:12.235Z,41.43
2023-03-29T17:35:36.360Z,41.43
2023-03-29T17:37:04.842Z,41.51
2023-03-29T17:38:30.767Z,41.78
2023-03-29T17:39:57.069Z,41.59
2023-03-29T17:41:35.618Z,41.83
2023-03-29T17:43:06.144Z,41.82
2023-03-29T17:44:35.975Z,41.91
2023-03-29T17:46:01.858Z,41.96
2023-03-29T17:47:24.187Z,42.12
2023-03-29T17:48:49.042Z,42.07
2023-03-29T17:50:13.058Z,42.17
2023-03-29T17:51:37.100Z,42.18
2023-03-29T17:53:07.091Z,42.18
2023-03-29T17:54:29.467Z,42.29
2023-03-29T17:55:57.440Z,42.54
2023-03-29T17:57:20.201Z,42.44
2023-03-29T17:58:49.248Z,42.56
2023-03-29T18:00:14.375Z,42.64
2023-03-29T18:01:39.652Z,42.74
2023-03-29T18:03:02.630Z,42.79
2023-03-29T18:04:31.664Z,42.90
2023-03-29T18:05:56.525Z,42.93
2023-03-29T18:07:21.352Z,43.06
2023-03-29T18:08:46.044Z,42.92
2023-03-29T18:10:15.910Z,43.21
2023-03-29T18:14:38.566Z,42.78
2023-03-29T18:16:01.904Z,43.29
2023-03-29T18:17:30.078Z,43.44
2023-03-29T18:19:05.922Z,43.51
2023-03-29T18:20:39.400Z,43.47
2023-03-29T18:22:02.201Z,43.70
2023-03-29T18:23:30.221Z,43.62
2023-03-29T18:25:13.841Z,43.76
2023-03-29T18:27:16.034Z,44.06
2023-03-29T18:28:42.886Z,43.79
2023-03-29T18:30:16.967Z,43.91
2023-03-29T18:31:42.975Z,43.92
2023-03-29T18:33:47.268Z,44.12
2023-03-29T18:42:40.939Z,43.99
2023-03-29T19:00:21.644Z,45.18
2023-03-29T19:01:53.484Z,45.51
2023-03-29T19:05:09.677Z,45.75
2023-03-29T19:06:28.036Z,45.40
2023-03-29T19:07:50.642Z,45.60
2023-03-29T19:11:41.168Z,45.93
2023-03-29T19:20:25.893Z,45.57
2023-03-29T19:22:09.268Z,45.78
2023-03-29T19:24:52.960Z,46.04
2023-03-29T19:30:02.300Z,45.86
2023-03-29T19:44:08.543Z,46.32
2023-03-29T19:46:41.590Z,46.45
2023-03-29T19:52:23.118Z,46.71
2023-03-29T19:54:35.124Z,46.85
2023-03-29T20:02:45.778Z,46.68
2023-03-29T20:06:43.039Z,47.31
2023-03-29T20:18:23.250Z,47.33
2023-03-29T21:45:07.474Z,50.63
2023-03-29T21:56:34.852Z,51.65
2023-03-29T21:58:45.091Z,51.91
2023-03-29T22:01:40.504Z,52.18
2023-03-29T22:05:41.668Z,52.56
2023-03-29T22:07:24.480Z,52.82
2023-03-29T22:09:39.908Z,52.68
2023-03-29T22:11:14.084Z,52.72
2023-03-29T22:31:35.510Z,52.35
2023-03-29T23:33:50.121Z,52.76
2023-03-29T23:43:20.763Z,53.32
2023-03-29T23:50:48.663Z,53.87
